createdAt,value
2018-03-24T00:01:14.175Z,4.10
2018-03-24T00:03:41.638Z,4.10
2018-03-24T00:06:09.097Z,4.10
2018-03-24T00:08:36.562Z,4.10
2018-03-24T00:11:04.037Z,3.90
2018-03-24T00:13:32.297Z,3.60
2018-03-24T00:15:59.767Z,3.60
2018-03-24T00:18:27.994Z,3.60
2018-03-24T00:20:55.459Z,3.60
2018-03-24T00:23:22.915Z,3.70
2018-03-24T00:25:50.610Z,3.70
2018-03-24T00:28:19.136Z,3.70
2018-03-24T00:30:46.599Z,3.70
2018-03-24T00:33:14.071Z,3.60
2018-03-24T00:35:41.528Z,3.60
2018-03-24T00:38:08.998Z,3.50
2018-03-24T00:40:36.670Z,3.40
2018-03-24T00:43:04.136Z,3.40
2018-03-24T00:45:33.262Z,3.30
2018-03-24T00:48:00.733Z,3.30
2018-03-24T00:50:28.207Z,3.30
2018-03-24T00:52:55.878Z,3.10
2018-03-24T00:55:23.349Z,3.00
2018-03-24T00:57:50.802Z,2.90
2018-03-24T01:00:18.282Z,2.80
2018-03-24T01:02:45.753Z,2.80
2018-03-24T01:05:13.982Z,2.70
2018-03-24T01:07:41.458Z,2.70
2018-03-24T01:10:08.922Z,2.70
2018-03-24T01:12:36.639Z,2.60
2018-03-24T01:15:04.106Z,2.60
2018-03-24T01:17:31.563Z,2.50
2018-03-24T01:19:59.032Z,2.40
2018-03-24T01:22:26.722Z,2.50
2018-03-24T01:24:54.187Z,2.50
2018-03-24T01:27:22.815Z,2.50
2018-03-24T01:29:50.278Z,2.50
2018-03-24T01:32:17.750Z,2.50
2018-03-24T01:34:45.208Z,2.50
2018-03-24T01:37:12.678Z,2.50
2018-03-24T01:39:40.146Z,2.40
2018-03-24T01:42:07.619Z,2.40
2018-03-24T01:44:36.137Z,2.30
2018-03-24T01:47:03.615Z,2.30
2018-03-24T01:49:31.066Z,2.20
2018-03-24T01:51:58.546Z,2.10
2018-03-24T01:54:26.021Z,1.90
2018-03-24T01:56:53.484Z,1.90
2018-03-24T01:59:21.716Z,1.80
2018-03-24T02:01:49.182Z,1.80
2018-03-24T02:04:16.922Z,1.80
2018-03-24T02:06:44.387Z,1.80
2018-03-24T02:09:11.871Z,1.80
2018-03-24T02:11:39.343Z,1.80
2018-03-24T02:14:06.803Z,1.80
2018-03-24T02:16:34.272Z,1.70
2018-03-24T02:19:02.498Z,1.70
2018-03-24T02:21:44.851Z,1.70
2018-03-24T02:24:13.290Z,1.60
2018-03-24T02:26:40.773Z,1.50
2018-03-24T02:29:08.245Z,1.50
2018-03-24T02:31:35.786Z,1.40
2018-03-24T02:34:03.254Z,1.50
2018-03-24T02:36:30.969Z,1.40
2018-03-24T02:38:58.442Z,1.40
2018-03-24T02:41:25.906Z,1.40
2018-03-24T02:43:53.375Z,1.20
2018-03-24T02:46:21.054Z,1.20
2018-03-24T02:48:48.541Z,1.30
2018-03-24T02:51:16.004Z,1.30
2018-03-24T02:53:43.460Z,1.40
2018-03-24T02:56:10.929Z,1.30
2018-03-24T02:58:38.694Z,1.30
2018-03-24T03:01:06.160Z,1.30
2018-03-24T03:03:33.630Z,1.30
2018-03-24T03:06:02.086Z,1.10
2018-03-24T03:08:29.566Z,1.10
2018-03-24T03:10:57.418Z,1.10
2018-03-24T03:13:25.181Z,1.10
2018-03-24T03:15:52.655Z,1.10
2018-03-24T03:18:20.338Z,1.20
2018-03-24T03:20:48.063Z,1.10
2018-03-24T03:23:15.528Z,1.10
2018-03-24T03:25:43.218Z,1.00
2018-03-24T03:28:10.907Z,0.90
2018-03-24T03:30:44.739Z,0.90
2018-03-24T03:33:12.217Z,0.90
2018-03-24T03:35:39.685Z,0.90
2018-03-24T03:38:07.531Z,0.80
2018-03-24T03:40:34.997Z,0.80
2018-03-24T03:43:02.472Z,0.80
2018-03-24T03:45:29.931Z,0.80
2018-03-24T03:47:57.400Z,0.80
2018-03-24T03:50:24.851Z,0.80
2018-03-24T03:52:52.579Z,0.70
2018-03-24T03:55:20.044Z,0.80
2018-03-24T03:57:47.518Z,0.70
2018-03-24T04:00:14.985Z,0.70
2018-03-24T04:02:43.741Z,0.80
2018-03-24T04:05:11.213Z,0.70
2018-03-24T04:07:38.674Z,0.70
2018-03-24T04:10:06.826Z,0.70
2018-03-24T04:12:34.598Z,0.70
2018-03-24T04:15:02.066Z,0.60
2018-03-24T04:17:29.816Z,0.50
2018-03-24T04:19:57.579Z,0.40
2018-03-24T04:22:25.041Z,0.50
2018-03-24T04:24:52.502Z,0.40
2018-03-24T04:27:19.973Z,0.30
2018-03-24T04:29:47.426Z,0.30
2018-03-24T04:32:14.890Z,0.20
2018-03-24T04:34:42.355Z,0.20
2018-03-24T04:37:10.030Z,0.10
2018-03-24T04:39:37.497Z,0.10
2018-03-24T04:42:05.730Z,0.10
2018-03-24T04:44:33.196Z,0.10
2018-03-24T04:47:00.645Z,0.10
2018-03-24T04:49:28.110Z,0.20
2018-03-24T04:51:55.573Z,0.20
2018-03-24T04:54:23.209Z,0.30
2018-03-24T04:56:50.673Z,0.30
2018-03-24T04:59:18.137Z,0.30
2018-03-24T05:01:45.604Z,0.30
2018-03-24T05:04:13.069Z,0.20
2018-03-24T05:06:40.535Z,0.20
2018-03-24T05:09:08.299Z,0.10
2018-03-24T05:11:35.770Z,0.10
2018-03-24T05:14:03.272Z,0.10
2018-03-24T05:16:30.734Z,0.10
2018-03-24T05:18:58.206Z,0.10
2018-03-24T05:21:26.423Z,0.20
2018-03-24T05:23:54.651Z,0.20
2018-03-24T05:26:22.110Z,0.20
2018-03-24T05:28:49.928Z,0.20
2018-03-24T05:31:17.338Z,0.20
2018-03-24T05:33:44.795Z,0.30
2018-03-24T05:36:12.267Z,0.30
2018-03-24T05:38:39.730Z,0.30
2018-03-24T05:41:07.451Z,0.20
2018-03-24T05:43:34.915Z,0.30
2018-03-24T05:46:02.391Z,0.30
2018-03-24T05:48:30.137Z,0.20
2018-03-24T05:50:57.556Z,0.40
2018-03-24T05:53:25.246Z,0.40
2018-03-24T05:55:53.013Z,0.40
2018-03-24T05:58:20.483Z,0.50
2018-03-24T06:00:47.942Z,0.60
2018-03-24T06:03:15.694Z,0.60
2018-03-24T06:05:43.558Z,0.60
2018-03-24T06:08:11.012Z,0.70
2018-03-24T06:10:38.485Z,0.70
2018-03-24T06:13:06.233Z,0.80
2018-03-24T06:15:33.723Z,0.90
2018-03-24T06:18:01.199Z,0.90
2018-03-24T06:20:28.658Z,1.00
2018-03-24T06:22:56.902Z,1.10
2018-03-24T06:25:24.362Z,1.10
2018-03-24T06:27:51.821Z,1.20
2018-03-24T06:33:22.208Z,1.40
2018-03-24T06:35:50.281Z,1.40
2018-03-24T06:38:17.828Z,1.40
2018-03-24T06:40:46.233Z,1.50
2018-03-24T06:43:13.818Z,1.50
2018-03-24T06:45:41.350Z,1.60
2018-03-24T06:48:08.902Z,1.70
2018-03-24T06:50:36.441Z,1.70
2018-03-24T06:53:04.808Z,1.70
2018-03-24T06:55:33.145Z,1.80
2018-03-24T06:58:00.696Z,1.80
2018-03-24T07:00:28.248Z,1.80
2018-03-24T07:02:55.781Z,2.00
2018-03-24T07:05:23.341Z,2.00
2018-03-24T07:07:50.887Z,2.10
2018-03-24T07:10:18.444Z,2.20
2018-03-24T07:12:46.900Z,2.30
2018-03-24T07:15:15.299Z,2.40
2018-03-24T07:17:43.194Z,2.40
2018-03-24T07:20:10.862Z,2.50
2018-03-24T07:22:38.424Z,2.60
2018-03-24T07:25:05.958Z,2.60
2018-03-24T07:27:33.507Z,2.70
2018-03-24T07:30:01.056Z,2.90
2018-03-24T07:32:28.632Z,2.90
2018-03-24T07:34:56.199Z,2.90
2018-03-24T07:37:23.762Z,3.10
2018-03-24T07:39:51.316Z,3.10
2018-03-24T07:42:18.858Z,3.10
2018-03-24T07:44:46.417Z,3.10
2018-03-24T07:47:13.954Z,3.20
2018-03-24T07:49:42.277Z,3.40
2018-03-24T07:52:09.825Z,3.40
2018-03-24T07:54:37.360Z,3.40
2018-03-24T07:57:04.911Z,3.40
2018-03-24T07:59:32.481Z,3.50
2018-03-24T08:02:00.068Z,3.60
2018-03-24T08:04:27.609Z,3.60
2018-03-24T08:06:55.185Z,3.70
2018-03-24T08:09:22.731Z,3.80
2018-03-24T08:11:50.275Z,3.90
2018-03-24T08:14:17.832Z,4.10
2018-03-24T08:16:45.387Z,4.10
2018-03-24T08:19:12.963Z,4.20
2018-03-24T08:21:40.468Z,4.40
2018-03-24T08:24:08.615Z,4.40
2018-03-24T08:26:36.219Z,4.40
2018-03-24T08:29:04.542Z,4.50
2018-03-24T08:31:32.112Z,4.50
2018-03-24T08:33:59.620Z,4.50
2018-03-24T08:36:27.165Z,4.50
2018-03-24T08:38:55.444Z,4.80
2018-03-24T08:41:23.719Z,4.80
2018-03-24T08:43:52.000Z,5.00
2018-03-24T08:46:19.518Z,5.00
2018-03-24T08:48:47.056Z,5.10
2018-03-24T08:51:14.567Z,5.30
2018-03-24T08:53:42.844Z,5.50
2018-03-24T08:56:10.369Z,5.40
2018-03-24T08:58:37.877Z,5.30
2018-03-24T09:01:05.375Z,5.50
2018-03-24T09:03:32.974Z,5.50
2018-03-24T09:06:00.470Z,5.30
2018-03-24T09:08:28.085Z,5.40
2018-03-24T09:10:57.266Z,5.50
2018-03-24T09:13:25.548Z,5.50
2018-03-24T09:15:53.135Z,5.40
2018-03-24T09:18:20.674Z,5.60
2018-03-24T09:20:48.938Z,5.70
2018-03-24T09:23:17.201Z,5.90
2018-03-24T09:25:44.780Z,5.80
2018-03-24T09:28:13.099Z,5.90
2018-03-24T09:30:40.619Z,5.80
2018-03-24T09:33:09.163Z,5.80
2018-03-24T09:35:37.491Z,6.10
2018-03-24T09:38:05.001Z,6.10
2018-03-24T09:40:32.510Z,6.00
2018-03-24T09:43:00.049Z,6.10
2018-03-24T09:45:27.566Z,6.10
2018-03-24T09:47:55.083Z,6.10
2018-03-24T09:50:22.589Z,6.10
2018-03-24T09:52:50.938Z,6.30
2018-03-24T09:55:18.401Z,6.30
2018-03-24T09:57:45.920Z,6.30
2018-03-24T10:00:13.424Z,6.50
2018-03-24T10:02:40.922Z,6.40
2018-03-24T10:05:08.459Z,6.40
2018-03-24T10:07:36.734Z,6.40
2018-03-24T10:10:05.010Z,6.70
2018-03-24T10:12:33.304Z,6.80
2018-03-24T10:15:00.859Z,6.80
2018-03-24T10:17:28.376Z,6.70
2018-03-24T10:19:55.890Z,6.70
2018-03-24T10:22:44.003Z,6.90
2018-03-24T10:25:12.316Z,7.00
2018-03-24T10:27:39.936Z,7.00
2018-03-24T10:30:08.244Z,7.10
2018-03-24T10:32:35.744Z,7.00
2018-03-24T10:35:08.555Z,7.30
2018-03-24T10:37:41.782Z,7.30
2018-03-24T10:40:09.343Z,7.20
2018-03-24T10:42:36.856Z,7.40
2018-03-24T10:45:05.136Z,7.40
2018-03-24T10:47:32.666Z,7.40
2018-03-24T10:50:00.194Z,7.40
2018-03-24T10:52:27.696Z,7.50
2018-03-24T10:54:57.946Z,7.60
2018-03-24T10:57:25.476Z,7.60
2018-03-24T10:59:54.720Z,7.80
2018-03-24T11:02:22.248Z,7.80
2018-03-24T11:04:49.759Z,7.70
2018-03-24T11:07:17.275Z,7.70
2018-03-24T11:09:44.795Z,7.80
2018-03-24T11:12:13.072Z,7.80
2018-03-24T11:14:48.284Z,7.80
2018-03-24T11:17:15.791Z,7.80
2018-03-24T11:19:43.290Z,7.60
2018-03-24T11:22:10.790Z,7.80
2018-03-24T11:24:39.084Z,8.10
2018-03-24T11:27:06.592Z,8.10
2018-03-24T11:29:34.118Z,8.20
2018-03-24T11:32:01.687Z,8.20
2018-03-24T11:34:29.223Z,8.40
2018-03-24T11:36:57.552Z,8.50
2018-03-24T11:39:25.073Z,8.40
2018-03-24T11:41:52.583Z,8.40
2018-03-24T11:44:20.884Z,8.90
2018-03-24T11:46:48.418Z,8.90
2018-03-24T11:49:16.681Z,8.90
2018-03-24T11:51:44.963Z,8.90
2018-03-24T11:54:13.250Z,9.10
2018-03-24T11:56:40.786Z,9.10
2018-03-24T11:59:08.338Z,9.10
2018-03-24T12:01:36.624Z,9.00
2018-03-24T12:04:04.894Z,9.00
2018-03-24T12:06:33.163Z,8.90
2018-03-24T12:09:01.455Z,8.90
2018-03-24T12:11:28.988Z,8.90
2018-03-24T12:13:56.558Z,8.90
2018-03-24T12:16:24.845Z,9.10
2018-03-24T12:18:52.395Z,9.00
2018-03-24T12:21:20.775Z,8.80
2018-03-24T12:23:49.078Z,8.70
2018-03-24T12:26:16.597Z,8.70
2018-03-24T12:28:44.887Z,8.70
2018-03-24T12:31:13.206Z,8.80
2018-03-24T12:33:40.716Z,8.80
2018-03-24T12:36:08.278Z,9.00
2018-03-24T12:38:35.820Z,9.00
2018-03-24T12:41:03.354Z,9.00
2018-03-24T12:43:30.866Z,8.90
2018-03-24T12:45:58.414Z,8.90
2018-03-24T12:48:25.948Z,9.10
2018-03-24T12:50:54.287Z,9.40
2018-03-24T12:53:21.894Z,9.40
2018-03-24T12:55:50.266Z,9.20
2018-03-24T12:58:18.546Z,9.40
2018-03-24T13:00:46.103Z,9.40
2018-03-24T13:03:14.375Z,9.60
2018-03-24T13:05:42.711Z,9.70
2018-03-24T13:08:10.222Z,9.70
2018-03-24T13:10:37.800Z,9.70
2018-03-24T13:13:05.372Z,9.20
2018-03-24T13:15:32.906Z,9.30
2018-03-24T13:18:00.439Z,9.50
2018-03-24T13:20:28.718Z,9.80
2018-03-24T13:22:56.240Z,9.70
2018-03-24T13:25:23.751Z,9.90
2018-03-24T13:27:51.322Z,9.90
2018-03-24T13:30:18.833Z,9.90
2018-03-24T13:32:47.123Z,9.80
2018-03-24T13:35:15.599Z,9.80
2018-03-24T13:37:43.914Z,9.50
2018-03-24T13:40:11.474Z,9.50
2018-03-24T13:42:40.333Z,9.60
2018-03-24T13:45:07.883Z,9.60
2018-03-24T13:47:35.407Z,9.60
2018-03-24T13:50:03.720Z,9.70
2018-03-24T13:52:32.007Z,9.70
2018-03-24T13:54:59.513Z,9.70
2018-03-24T13:57:27.039Z,9.70
2018-03-24T13:59:54.547Z,9.60
2018-03-24T14:02:22.839Z,9.60
2018-03-24T14:04:51.189Z,9.40
2018-03-24T14:07:18.722Z,9.40
2018-03-24T14:09:46.249Z,9.30
2018-03-24T14:12:14.552Z,9.70
2018-03-24T14:14:42.071Z,9.70
2018-03-24T14:17:09.617Z,9.70
2018-03-24T14:19:37.954Z,9.80
2018-03-24T14:22:05.424Z,9.80
2018-03-24T14:24:32.943Z,10.00
2018-03-24T14:27:00.464Z,10.10
2018-03-24T14:29:28.815Z,9.80
2018-03-24T14:31:56.359Z,9.80
2018-03-24T14:34:23.855Z,9.80
2018-03-24T14:36:52.139Z,9.80
2018-03-24T14:39:19.652Z,9.70
2018-03-24T14:41:47.158Z,9.90
2018-03-24T14:44:14.674Z,9.70
2018-03-24T14:46:42.175Z,9.70
2018-03-24T14:49:09.704Z,9.60
2018-03-24T14:51:37.987Z,9.70
2018-03-24T14:54:06.284Z,9.70
2018-03-24T14:56:33.801Z,9.70
2018-03-24T14:59:01.341Z,9.80
2018-03-24T15:01:29.644Z,9.90
2018-03-24T15:03:57.838Z,10.00
2018-03-24T15:06:26.081Z,9.90
2018-03-24T15:08:54.208Z,9.80
2018-03-24T15:11:23.169Z,9.70
2018-03-24T15:13:51.311Z,9.70
2018-03-24T15:16:19.523Z,9.70
2018-03-24T15:18:47.498Z,9.70
2018-03-24T15:21:15.459Z,9.60
2018-03-24T15:23:43.519Z,9.60
2018-03-24T15:26:11.659Z,9.60
2018-03-24T15:31:52.201Z,9.60
2018-03-24T15:34:31.845Z,9.60
2018-03-24T15:36:59.857Z,9.70
2018-03-24T15:39:27.840Z,9.60
2018-03-24T15:41:55.757Z,9.60
2018-03-24T15:44:23.323Z,9.60
2018-03-24T15:46:50.849Z,9.50
2018-03-24T15:49:18.393Z,9.40
2018-03-24T15:51:45.927Z,9.20
2018-03-24T15:54:13.499Z,9.00
2018-03-24T15:56:41.063Z,9.10
2018-03-24T15:59:08.580Z,9.20
2018-03-24T16:01:36.102Z,9.10
2018-03-24T16:04:03.717Z,9.20
2018-03-24T16:06:31.260Z,9.10
2018-03-24T16:08:58.798Z,9.10
2018-03-24T16:11:26.305Z,9.10
2018-03-24T16:13:54.602Z,9.00
2018-03-24T16:16:22.212Z,8.90
2018-03-24T16:18:50.570Z,8.90
2018-03-24T16:21:18.077Z,8.90
2018-03-24T16:23:45.599Z,8.90
2018-03-24T16:26:13.130Z,8.70
2018-03-24T16:28:40.652Z,8.70
2018-03-24T16:31:08.216Z,8.70
2018-03-24T16:33:35.722Z,8.70
2018-03-24T16:36:03.255Z,8.60
2018-03-24T16:38:30.806Z,8.70
2018-03-24T16:40:58.438Z,8.70
2018-03-24T16:43:26.086Z,8.80
2018-03-24T16:45:54.499Z,8.70
2018-03-24T16:48:22.019Z,8.70
2018-03-24T16:50:49.591Z,8.50
2018-03-24T16:53:17.147Z,8.50
2018-03-24T16:55:44.684Z,8.30
2018-03-24T16:58:12.981Z,8.30
2018-03-24T17:00:40.530Z,8.30
2018-03-24T17:03:08.062Z,8.20
2018-03-24T17:05:35.589Z,8.20
2018-03-24T17:08:03.108Z,8.20
2018-03-24T17:10:30.703Z,8.20
2018-03-24T17:12:58.210Z,8.10
2018-03-24T17:15:26.485Z,7.70
2018-03-24T17:17:54.772Z,7.60
2018-03-24T17:20:22.328Z,7.70
2018-03-24T17:22:50.614Z,7.60
2018-03-24T17:25:18.138Z,7.60
2018-03-24T17:27:45.715Z,7.50
2018-03-24T17:30:14.001Z,7.30
2018-03-24T17:32:41.526Z,7.30
2018-03-24T17:35:09.035Z,7.20
2018-03-24T17:37:36.545Z,7.20
2018-03-24T17:40:04.095Z,7.20
2018-03-24T17:42:31.650Z,7.10
2018-03-24T17:44:59.179Z,7.00
2018-03-24T17:47:26.708Z,7.00
2018-03-24T17:49:54.231Z,6.90
2018-03-24T17:52:21.774Z,6.80
2018-03-24T17:54:49.399Z,6.80
2018-03-24T17:57:16.960Z,6.70
2018-03-24T17:59:44.486Z,6.70
2018-03-24T18:02:12.025Z,6.70
2018-03-24T18:04:40.353Z,6.60
2018-03-24T18:07:07.911Z,6.60
2018-03-24T18:09:35.419Z,6.50
2018-03-24T18:12:03.700Z,6.40
2018-03-24T18:14:32.004Z,6.30
2018-03-24T18:16:59.587Z,6.30
2018-03-24T18:19:27.135Z,6.30
2018-03-24T18:21:54.679Z,6.20
2018-03-24T18:24:22.973Z,6.20
2018-03-24T18:26:50.492Z,6.20
2018-03-24T18:29:18.067Z,6.60
2018-03-24T18:31:45.599Z,6.30
2018-03-24T18:34:13.149Z,6.20
2018-03-24T18:36:41.443Z,6.10
2018-03-24T18:39:08.967Z,6.00
2018-03-24T18:41:36.487Z,6.00
2018-03-24T18:44:04.007Z,5.90
2018-03-24T18:46:31.549Z,5.90
2018-03-24T18:48:59.102Z,5.80
2018-03-24T18:51:27.430Z,5.60
2018-03-24T18:53:54.974Z,5.60
2018-03-24T18:56:22.518Z,5.60
2018-03-24T18:58:50.100Z,5.50
2018-03-24T19:01:17.622Z,5.40
2018-03-24T19:03:45.147Z,5.40
2018-03-24T19:06:12.688Z,5.30
2018-03-24T19:08:40.199Z,5.20
2018-03-24T19:11:07.727Z,5.20
2018-03-24T19:13:35.291Z,5.10
2018-03-24T19:16:02.852Z,5.10
2018-03-24T19:18:31.186Z,5.10
2018-03-24T19:20:58.744Z,5.00
2018-03-24T19:23:26.283Z,5.00
2018-03-24T19:25:53.836Z,5.00
2018-03-24T19:28:21.422Z,4.90
2018-03-24T19:30:48.968Z,4.90
2018-03-24T19:33:16.534Z,4.90
2018-03-24T19:35:44.054Z,4.90
2018-03-24T19:38:12.463Z,4.80
2018-03-24T19:40:40.841Z,4.70
2018-03-24T19:43:08.406Z,4.70
2018-03-24T19:45:35.950Z,4.70
2018-03-24T19:48:03.501Z,4.70
2018-03-24T19:50:31.068Z,4.80
2018-03-24T19:52:58.603Z,4.70
2018-03-24T19:55:26.151Z,4.70
2018-03-24T19:57:53.738Z,4.70
2018-03-24T20:00:21.325Z,4.70
2018-03-24T20:02:48.864Z,4.70
2018-03-24T20:05:16.517Z,4.60
2018-03-24T20:07:44.199Z,4.60
2018-03-24T20:10:11.788Z,4.50
2018-03-24T20:12:40.100Z,4.50
2018-03-24T20:15:07.739Z,4.40
2018-03-24T20:17:36.099Z,4.30
2018-03-24T20:20:03.647Z,4.20
2018-03-24T20:22:31.943Z,4.20
2018-03-24T20:25:00.253Z,4.10
2018-03-24T20:27:27.818Z,4.20
2018-03-24T20:29:55.355Z,4.10
2018-03-24T20:32:22.945Z,4.10
2018-03-24T20:34:50.484Z,4.10
2018-03-24T20:37:18.012Z,4.00
2018-03-24T20:39:46.327Z,3.90
2018-03-24T20:42:13.842Z,3.90
2018-03-24T20:44:42.149Z,3.80
2018-03-24T20:47:09.685Z,3.80
2018-03-24T20:49:37.244Z,3.80
2018-03-24T20:52:04.796Z,3.70
2018-03-24T20:54:32.376Z,3.70
2018-03-24T20:56:59.941Z,3.70
2018-03-24T20:59:27.455Z,3.60
2018-03-24T21:01:55.780Z,3.60
2018-03-24T21:04:23.366Z,3.60
2018-03-24T21:06:50.907Z,3.50
2018-03-24T21:09:18.468Z,3.50
2018-03-24T21:11:45.988Z,3.40
2018-03-24T21:14:13.568Z,3.30
2018-03-24T21:16:41.129Z,3.30
2018-03-24T21:19:08.702Z,3.30
2018-03-24T21:21:36.226Z,3.20
2018-03-24T21:24:03.816Z,3.10
2018-03-24T21:26:31.387Z,3.00
2018-03-24T21:28:59.019Z,3.10
2018-03-24T21:31:26.595Z,3.10
2018-03-24T21:33:54.121Z,3.10
2018-03-24T21:36:21.681Z,3.00
2018-03-24T21:38:49.250Z,3.00
2018-03-24T21:41:16.770Z,3.00
2018-03-24T21:43:44.395Z,2.90
2018-03-24T21:46:11.978Z,2.90
2018-03-24T21:48:40.287Z,2.90
2018-03-24T21:51:07.804Z,2.90
2018-03-24T21:53:36.104Z,2.80
2018-03-24T21:56:03.643Z,2.80
2018-03-24T21:58:31.948Z,2.70
2018-03-24T22:01:00.132Z,2.70
2018-03-24T22:03:27.700Z,2.60
2018-03-24T22:05:55.238Z,2.70
2018-03-24T22:08:22.976Z,2.60
2018-03-24T22:10:51.286Z,2.60
2018-03-24T22:13:18.968Z,2.60
2018-03-24T22:15:46.503Z,2.50
2018-03-24T22:18:14.031Z,2.50
2018-03-24T22:20:42.331Z,2.40
2018-03-24T22:23:09.959Z,2.40
2018-03-24T22:25:38.248Z,2.40
2018-03-24T22:28:05.814Z,2.30
2018-03-24T22:30:33.381Z,2.40
2018-03-24T22:33:00.963Z,2.40
2018-03-24T22:35:28.504Z,2.40
2018-03-24T22:37:56.133Z,2.40
2018-03-24T22:40:23.771Z,2.40
2018-03-24T22:42:52.118Z,2.20
2018-03-24T22:45:19.695Z,2.20
2018-03-24T22:47:47.244Z,2.20
2018-03-24T22:50:14.897Z,2.20
2018-03-24T22:52:42.465Z,2.20
2018-03-24T22:55:10.008Z,2.20
2018-03-24T22:57:37.560Z,2.20
2018-03-24T23:00:06.062Z,2.20
2018-03-24T23:02:33.602Z,2.20
2018-03-24T23:05:01.147Z,2.10
2018-03-24T23:07:28.682Z,2.10
2018-03-24T23:09:56.998Z,2.10
2018-03-24T23:12:24.605Z,2.00
2018-03-24T23:14:52.168Z,2.10
2018-03-24T23:17:19.697Z,2.10
2018-03-24T23:19:47.224Z,2.00
2018-03-24T23:22:14.749Z,1.90
2018-03-24T23:24:42.321Z,1.90
2018-03-24T23:27:09.872Z,1.90
2018-03-24T23:29:37.444Z,1.90
2018-03-24T23:32:05.099Z,1.80
2018-03-24T23:34:32.703Z,1.90
2018-03-24T23:37:00.237Z,1.80
2018-03-24T23:39:27.754Z,1.90
2018-03-24T23:41:55.264Z,1.90
2018-03-24T23:44:22.847Z,1.90
2018-03-24T23:46:50.351Z,1.90
2018-03-24T23:49:17.904Z,1.80
2018-03-24T23:51:45.418Z,1.70
2018-03-24T23:54:13.688Z,1.70
2018-03-24T23:56:41.214Z,1.70
2018-03-24T23:59:08.730Z,1.70
